Mapes, North Dakota
Current Conditions -  °F | °C
As of 11:15 AM on Sunday 21 Dec 2014 (Local Time) from KDVL Reporting Station
Overcast Overcast  
Wind Chill:   Ceiling: 300
Heat Index: 21°   Visibility: 4mi
Dew Point: 16°   Wind: 12mph
Humidity: 80%   Direction: 150°SSE
Pressure: 29.58"   Gusts: NA
Location:  48.021°N, 98.3447°W
Report Text: KDVL 211715Z AUTO 15010KT 4SM OVC003 M06/M09 A2958 RMK AO1
Loading
Personal Weather Stations






























Interactive Weather Map New forecast layout! Learn more

10-Day Weather Forecast

Advertisements
Track Severe Weather on mobile